sensor_id;sensor_type;location;lat;lon;timestamp;temperature;humidity
17236;DHT22;8734;59.272;17.780;2023-04-23T00:02:27;6.90;99.90
17236;DHT22;8734;59.272;17.780;2023-04-23T00:04:57;6.90;99.90
17236;DHT22;8734;59.272;17.780;2023-04-23T00:07:31;6.70;99.90
17236;DHT22;8734;59.272;17.780;2023-04-23T00:10:01;6.60;99.90
17236;DHT22;8734;59.272;17.780;2023-04-23T00:12:31;6.60;99.90
17236;DHT22;8734;59.272;17.780;2023-04-23T00:15:01;6.40;99.90
17236;DHT22;8734;59.272;17.780;2023-04-23T00:17:31;6.30;99.90
17236;DHT22;8734;59.272;17.780;2023-04-23T00:19:59;6.20;99.90
17236;DHT22;8734;59.272;17.780;2023-04-23T00:22:28;6.10;99.90
17236;DHT22;8734;59.272;17.780;2023-04-23T00:24:56;6.00;99.90
17236;DHT22;8734;59.272;17.780;2023-04-23T00:27:24;6.00;99.90
17236;DHT22;8734;59.272;17.780;2023-04-23T00:29:52;6.00;99.90
17236;DHT22;8734;59.272;17.780;2023-04-23T00:32:21;5.90;99.90
17236;DHT22;8734;59.272;17.780;2023-04-23T00:34:51;5.90;99.90
17236;DHT22;8734;59.272;17.780;2023-04-23T00:37:20;5.90;99.90
17236;DHT22;8734;59.272;17.780;2023-04-23T00:39:48;5.90;99.90
17236;DHT22;8734;59.272;17.780;2023-04-23T00:42:16;5.90;99.90
17236;DHT22;8734;59.272;17.780;2023-04-23T00:44:45;6.00;99.90
17236;DHT22;8734;59.272;17.780;2023-04-23T00:47:14;6.20;99.90
17236;DHT22;8734;59.272;17.780;2023-04-23T00:49:43;6.40;99.90
17236;DHT22;8734;59.272;17.780;2023-04-23T00:52:13;6.40;99.90
17236;DHT22;8734;59.272;17.780;2023-04-23T00:54:42;6.30;99.90
17236;DHT22;8734;59.272;17.780;2023-04-23T00:57:10;6.20;99.90
17236;DHT22;8734;59.272;17.780;2023-04-23T00:59:39;6.10;99.90
17236;DHT22;8734;59.272;17.780;2023-04-23T01:02:07;6.10;99.90
17236;DHT22;8734;59.272;17.780;2023-04-23T01:04:37;6.20;99.90
17236;DHT22;8734;59.272;17.780;2023-04-23T01:07:06;6.30;99.90
17236;DHT22;8734;59.272;17.780;2023-04-23T01:09:35;6.40;99.90
17236;DHT22;8734;59.272;17.780;2023-04-23T01:12:05;6.40;99.90
17236;DHT22;8734;59.272;17.780;2023-04-23T01:14:33;6.30;99.90
17236;DHT22;8734;59.272;17.780;2023-04-23T01:17:02;6.10;99.90
17236;DHT22;8734;59.272;17.780;2023-04-23T01:19:31;6.00;99.90
17236;DHT22;8734;59.272;17.780;2023-04-23T01:22:00;5.90;99.90
17236;DHT22;8734;59.272;17.780;2023-04-23T01:24:30;5.80;99.90
17236;DHT22;8734;59.272;17.780;2023-04-23T01:26:59;5.80;99.90
17236;DHT22;8734;59.272;17.780;2023-04-23T01:29:28;5.70;99.90
17236;DHT22;8734;59.272;17.780;2023-04-23T01:31:57;5.60;99.90
17236;DHT22;8734;59.272;17.780;2023-04-23T01:34:26;5.50;99.90
17236;DHT22;8734;59.272;17.780;2023-04-23T01:36:55;5.40;99.90
17236;DHT22;8734;59.272;17.780;2023-04-23T01:39:24;5.40;99.90
17236;DHT22;8734;59.272;17.780;2023-04-23T01:41:54;5.30;99.90
17236;DHT22;8734;59.272;17.780;2023-04-23T01:44:23;5.50;99.90
17236;DHT22;8734;59.272;17.780;2023-04-23T01:46:52;5.50;99.90
17236;DHT22;8734;59.272;17.780;2023-04-23T01:49:20;5.40;99.90
17236;DHT22;8734;59.272;17.780;2023-04-23T01:51:49;5.30;99.90
17236;DHT22;8734;59.272;17.780;2023-04-23T01:54:17;5.30;99.90
17236;DHT22;8734;59.272;17.780;2023-04-23T01:56:45;5.20;99.90
17236;DHT22;8734;59.272;17.780;2023-04-23T01:59:15;5.10;99.90
17236;DHT22;8734;59.272;17.780;2023-04-23T02:01:44;5.10;99.90
17236;DHT22;8734;59.272;17.780;2023-04-23T02:04:14;5.10;99.90
17236;DHT22;8734;59.272;17.780;2023-04-23T02:06:45;5.10;99.90
17236;DHT22;8734;59.272;17.780;2023-04-23T02:09:14;5.10;99.90
17236;DHT22;8734;59.272;17.780;2023-04-23T02:11:42;5.00;99.90
17236;DHT22;8734;59.272;17.780;2023-04-23T02:14:11;4.90;99.90
17236;DHT22;8734;59.272;17.780;2023-04-23T02:16:41;4.90;99.90
17236;DHT22;8734;59.272;17.780;2023-04-23T02:19:09;4.80;99.90
17236;DHT22;8734;59.272;17.780;2023-04-23T02:21:41;4.80;99.90
17236;DHT22;8734;59.272;17.780;2023-04-23T02:24:09;5.00;99.90
17236;DHT22;8734;59.272;17.780;2023-04-23T02:26:38;5.20;99.90
17236;DHT22;8734;59.272;17.780;2023-04-23T02:29:06;5.10;99.90
17236;DHT22;8734;59.272;17.780;2023-04-23T02:31:34;5.20;99.90
17236;DHT22;8734;59.272;17.780;2023-04-23T02:34:04;5.20;99.90
17236;DHT22;8734;59.272;17.780;2023-04-23T02:36:32;5.20;99.90
17236;DHT22;8734;59.272;17.780;2023-04-23T02:39:00;5.30;99.90
17236;DHT22;8734;59.272;17.780;2023-04-23T02:41:29;5.30;99.90
17236;DHT22;8734;59.272;17.780;2023-04-23T02:43:57;5.30;99.90
17236;DHT22;8734;59.272;17.780;2023-04-23T02:46:26;5.30;99.90
17236;DHT22;8734;59.272;17.780;2023-04-23T02:48:55;5.40;99.90
17236;DHT22;8734;59.272;17.780;2023-04-23T02:51:24;5.30;99.90
17236;DHT22;8734;59.272;17.780;2023-04-23T02:53:53;5.40;99.90
17236;DHT22;8734;59.272;17.780;2023-04-23T02:56:21;5.40;99.90
17236;DHT22;8734;59.272;17.780;2023-04-23T02:58:49;5.40;99.90
17236;DHT22;8734;59.272;17.780;2023-04-23T03:01:18;5.30;99.90
17236;DHT22;8734;59.272;17.780;2023-04-23T03:03:46;5.20;99.90
17236;DHT22;8734;59.272;17.780;2023-04-23T03:06:15;5.10;99.90
17236;DHT22;8734;59.272;17.780;2023-04-23T03:08:45;5.10;99.90
17236;DHT22;8734;59.272;17.780;2023-04-23T03:11:13;5.10;99.90
17236;DHT22;8734;59.272;17.780;2023-04-23T03:13:42;5.10;99.90
17236;DHT22;8734;59.272;17.780;2023-04-23T03:16:11;5.10;99.90
17236;DHT22;8734;59.272;17.780;2023-04-23T03:18:40;5.10;99.90
17236;DHT22;8734;59.272;17.780;2023-04-23T03:21:08;5.10;99.90
17236;DHT22;8734;59.272;17.780;2023-04-23T03:23:36;5.10;99.90
17236;DHT22;8734;59.272;17.780;2023-04-23T03:26:06;5.10;99.90
17236;DHT22;8734;59.272;17.780;2023-04-23T03:28:34;5.20;99.90
17236;DHT22;8734;59.272;17.780;2023-04-23T03:31:02;5.20;99.90
17236;DHT22;8734;59.272;17.780;2023-04-23T03:33:31;5.20;99.90
17236;DHT22;8734;59.272;17.780;2023-04-23T03:35:59;5.20;99.90
17236;DHT22;8734;59.272;17.780;2023-04-23T03:38:27;5.20;99.90
17236;DHT22;8734;59.272;17.780;2023-04-23T03:40:55;5.20;99.90
17236;DHT22;8734;59.272;17.780;2023-04-23T03:43:25;5.20;99.90
17236;DHT22;8734;59.272;17.780;2023-04-23T03:45:53;5.30;99.90
17236;DHT22;8734;59.272;17.780;2023-04-23T03:48:22;5.20;99.90
17236;DHT22;8734;59.272;17.780;2023-04-23T03:50:50;5.20;99.90
17236;DHT22;8734;59.272;17.780;2023-04-23T03:53:18;5.10;99.90
17236;DHT22;8734;59.272;17.780;2023-04-23T03:55:47;5.10;99.90
17236;DHT22;8734;59.272;17.780;2023-04-23T03:58:16;5.20;99.90
17236;DHT22;8734;59.272;17.780;2023-04-23T04:00:45;5.20;99.90
17236;DHT22;8734;59.272;17.780;2023-04-23T04:03:14;5.20;99.90
17236;DHT22;8734;59.272;17.780;2023-04-23T04:05:42;5.20;99.90
17236;DHT22;8734;59.272;17.780;2023-04-23T04:08:11;5.30;99.90
17236;DHT22;8734;59.272;17.780;2023-04-23T04:10:40;5.30;99.90
17236;DHT22;8734;59.272;17.780;2023-04-23T04:13:08;5.30;99.90
17236;DHT22;8734;59.272;17.780;2023-04-23T04:15:36;5.30;99.90
17236;DHT22;8734;59.272;17.780;2023-04-23T04:18:06;5.30;99.90
17236;DHT22;8734;59.272;17.780;2023-04-23T04:20:34;5.30;99.90
17236;DHT22;8734;59.272;17.780;2023-04-23T04:23:02;5.30;99.90
17236;DHT22;8734;59.272;17.780;2023-04-23T04:25:31;5.30;99.90
17236;DHT22;8734;59.272;17.780;2023-04-23T04:27:59;5.30;99.90
17236;DHT22;8734;59.272;17.780;2023-04-23T04:30:27;5.40;99.90
17236;DHT22;8734;59.272;17.780;2023-04-23T04:32:56;5.30;99.90
17236;DHT22;8734;59.272;17.780;2023-04-23T04:35:26;5.40;99.90
17236;DHT22;8734;59.272;17.780;2023-04-23T04:37:54;5.40;99.90
17236;DHT22;8734;59.272;17.780;2023-04-23T04:40:22;5.50;99.90
17236;DHT22;8734;59.272;17.780;2023-04-23T04:42:52;5.50;99.90
17236;DHT22;8734;59.272;17.780;2023-04-23T04:45:21;5.60;99.90
17236;DHT22;8734;59.272;17.780;2023-04-23T04:47:49;5.60;99.90
17236;DHT22;8734;59.272;17.780;2023-04-23T04:50:18;5.70;99.90
17236;DHT22;8734;59.272;17.780;2023-04-23T04:52:48;5.80;99.90
17236;DHT22;8734;59.272;17.780;2023-04-23T04:55:16;5.90;99.90
17236;DHT22;8734;59.272;17.780;2023-04-23T04:57:44;5.90;99.90
17236;DHT22;8734;59.272;17.780;2023-04-23T05:00:21;6.00;99.90
17236;DHT22;8734;59.272;17.780;2023-04-23T05:02:50;6.10;99.90
17236;DHT22;8734;59.272;17.780;2023-04-23T05:05:20;6.20;99.90
17236;DHT22;8734;59.272;17.780;2023-04-23T05:07:50;6.30;99.90
17236;DHT22;8734;59.272;17.780;2023-04-23T05:10:20;6.50;99.90
17236;DHT22;8734;59.272;17.780;2023-04-23T05:12:48;6.50;99.90
17236;DHT22;8734;59.272;17.780;2023-04-23T05:15:17;6.70;99.90
17236;DHT22;8734;59.272;17.780;2023-04-23T05:17:46;6.80;99.90
17236;DHT22;8734;59.272;17.780;2023-04-23T05:20:16;6.90;99.90
17236;DHT22;8734;59.272;17.780;2023-04-23T05:22:44;7.00;99.90
17236;DHT22;8734;59.272;17.780;2023-04-23T05:25:14;7.20;99.90
17236;DHT22;8734;59.272;17.780;2023-04-23T05:27:42;7.30;99.90
17236;DHT22;8734;59.272;17.780;2023-04-23T05:30:10;7.50;99.90
17236;DHT22;8734;59.272;17.780;2023-04-23T05:32:39;7.70;99.90
17236;DHT22;8734;59.272;17.780;2023-04-23T05:35:08;7.80;99.90
17236;DHT22;8734;59.272;17.780;2023-04-23T05:37:36;8.00;99.90
17236;DHT22;8734;59.272;17.780;2023-04-23T05:40:05;8.20;99.90
17236;DHT22;8734;59.272;17.780;2023-04-23T05:42:36;8.30;99.90
17236;DHT22;8734;59.272;17.780;2023-04-23T05:45:05;8.50;99.90
17236;DHT22;8734;59.272;17.780;2023-04-23T05:47:35;8.60;99.90
17236;DHT22;8734;59.272;17.780;2023-04-23T05:50:04;8.70;99.90
17236;DHT22;8734;59.272;17.780;2023-04-23T05:52:33;8.70;99.90
17236;DHT22;8734;59.272;17.780;2023-04-23T05:55:04;8.70;99.90
17236;DHT22;8734;59.272;17.780;2023-04-23T05:57:32;8.80;99.90
17236;DHT22;8734;59.272;17.780;2023-04-23T06:00:03;8.90;99.90
17236;DHT22;8734;59.272;17.780;2023-04-23T06:02:32;9.00;99.90
17236;DHT22;8734;59.272;17.780;2023-04-23T06:05:00;9.20;99.90
17236;DHT22;8734;59.272;17.780;2023-04-23T06:07:29;9.30;99.90
17236;DHT22;8734;59.272;17.780;2023-04-23T06:09:58;9.30;99.90
17236;DHT22;8734;59.272;17.780;2023-04-23T06:12:26;9.40;99.90
17236;DHT22;8734;59.272;17.780;2023-04-23T06:14:54;9.60;99.90
17236;DHT22;8734;59.272;17.780;2023-04-23T06:17:24;9.70;99.90
17236;DHT22;8734;59.272;17.780;2023-04-23T06:19:52;9.70;99.90
17236;DHT22;8734;59.272;17.780;2023-04-23T06:22:21;9.90;99.90
17236;DHT22;8734;59.272;17.780;2023-04-23T06:24:49;10.00;99.90
17236;DHT22;8734;59.272;17.780;2023-04-23T06:27:17;10.20;99.90
17236;DHT22;8734;59.272;17.780;2023-04-23T06:29:45;10.30;99.90
17236;DHT22;8734;59.272;17.780;2023-04-23T06:32:14;10.60;99.90
17236;DHT22;8734;59.272;17.780;2023-04-23T06:34:47;10.80;99.90
17236;DHT22;8734;59.272;17.780;2023-04-23T06:37:27;11.10;99.90
17236;DHT22;8734;59.272;17.780;2023-04-23T06:39:57;11.20;99.90
17236;DHT22;8734;59.272;17.780;2023-04-23T06:42:26;11.20;99.90
17236;DHT22;8734;59.272;17.780;2023-04-23T06:44:54;11.30;99.90
17236;DHT22;8734;59.272;17.780;2023-04-23T06:47:22;11.40;99.90
17236;DHT22;8734;59.272;17.780;2023-04-23T06:49:52;11.60;99.90
17236;DHT22;8734;59.272;17.780;2023-04-23T06:52:20;11.70;99.90
17236;DHT22;8734;59.272;17.780;2023-04-23T06:54:48;11.90;99.90
17236;DHT22;8734;59.272;17.780;2023-04-23T06:57:17;12.10;99.90
17236;DHT22;8734;59.272;17.780;2023-04-23T06:59:45;12.20;99.90
17236;DHT22;8734;59.272;17.780;2023-04-23T07:02:13;12.50;99.90
17236;DHT22;8734;59.272;17.780;2023-04-23T07:04:42;12.50;99.90
17236;DHT22;8734;59.272;17.780;2023-04-23T07:07:13;12.50;99.90
17236;DHT22;8734;59.272;17.780;2023-04-23T07:09:41;12.70;99.90
17236;DHT22;8734;59.272;17.780;2023-04-23T07:12:09;12.80;99.90
17236;DHT22;8734;59.272;17.780;2023-04-23T07:14:38;13.20;99.90
17236;DHT22;8734;59.272;17.780;2023-04-23T07:17:06;13.40;99.90
17236;DHT22;8734;59.272;17.780;2023-04-23T07:19:35;13.40;99.90
17236;DHT22;8734;59.272;17.780;2023-04-23T07:22:03;13.40;99.90
17236;DHT22;8734;59.272;17.780;2023-04-23T07:24:33;13.50;99.90
17236;DHT22;8734;59.272;17.780;2023-04-23T07:27:02;13.50;99.90
17236;DHT22;8734;59.272;17.780;2023-04-23T07:29:30;13.40;99.90
17236;DHT22;8734;59.272;17.780;2023-04-23T07:31:58;13.40;99.90
17236;DHT22;8734;59.272;17.780;2023-04-23T07:34:27;13.40;99.90
17236;DHT22;8734;59.272;17.780;2023-04-23T07:36:55;13.30;99.90
17236;DHT22;8734;59.272;17.780;2023-04-23T07:39:23;13.30;99.90
17236;DHT22;8734;59.272;17.780;2023-04-23T07:41:53;13.30;99.90
17236;DHT22;8734;59.272;17.780;2023-04-23T07:44:22;13.10;99.90
17236;DHT22;8734;59.272;17.780;2023-04-23T07:46:50;13.10;99.90
17236;DHT22;8734;59.272;17.780;2023-04-23T07:49:19;13.50;99.90
17236;DHT22;8734;59.272;17.780;2023-04-23T07:51:47;13.90;99.90
17236;DHT22;8734;59.272;17.780;2023-04-23T07:54:15;14.30;99.90
17236;DHT22;8734;59.272;17.780;2023-04-23T07:56:44;14.50;99.90
17236;DHT22;8734;59.272;17.780;2023-04-23T07:59:13;14.60;99.90
17236;DHT22;8734;59.272;17.780;2023-04-23T08:01:41;14.70;99.90
17236;DHT22;8734;59.272;17.780;2023-04-23T08:04:10;14.80;99.90
17236;DHT22;8734;59.272;17.780;2023-04-23T08:06:40;14.80;99.90
17236;DHT22;8734;59.272;17.780;2023-04-23T08:09:08;15.00;99.90
17236;DHT22;8734;59.272;17.780;2023-04-23T08:11:37;15.50;99.90
17236;DHT22;8734;59.272;17.780;2023-04-23T08:14:05;15.80;99.90
17236;DHT22;8734;59.272;17.780;2023-04-23T08:16:35;16.50;99.90
17236;DHT22;8734;59.272;17.780;2023-04-23T08:19:05;16.10;99.90
17236;DHT22;8734;59.272;17.780;2023-04-23T08:21:33;16.50;99.90
17236;DHT22;8734;59.272;17.780;2023-04-23T08:24:02;16.70;99.90
17236;DHT22;8734;59.272;17.780;2023-04-23T08:26:31;16.00;99.90
17236;DHT22;8734;59.272;17.780;2023-04-23T08:28:59;15.20;99.90
17236;DHT22;8734;59.272;17.780;2023-04-23T08:31:28;14.80;99.90
17236;DHT22;8734;59.272;17.780;2023-04-23T08:33:58;14.80;99.90
17236;DHT22;8734;59.272;17.780;2023-04-23T08:36:27;15.50;99.90
17236;DHT22;8734;59.272;17.780;2023-04-23T08:38:55;15.90;99.90
17236;DHT22;8734;59.272;17.780;2023-04-23T08:41:26;15.90;99.90
17236;DHT22;8734;59.272;17.780;2023-04-23T08:44:05;15.80;99.90
17236;DHT22;8734;59.272;17.780;2023-04-23T08:46:36;16.00;99.90
17236;DHT22;8734;59.272;17.780;2023-04-23T08:49:06;16.40;99.90
17236;DHT22;8734;59.272;17.780;2023-04-23T08:51:37;16.30;99.90
17236;DHT22;8734;59.272;17.780;2023-04-23T08:54:14;16.20;99.90
17236;DHT22;8734;59.272;17.780;2023-04-23T08:56:43;16.10;99.90
17236;DHT22;8734;59.272;17.780;2023-04-23T08:59:12;16.10;99.90
17236;DHT22;8734;59.272;17.780;2023-04-23T09:01:43;16.30;99.90
17236;DHT22;8734;59.272;17.780;2023-04-23T09:04:14;16.30;99.90
17236;DHT22;8734;59.272;17.780;2023-04-23T09:06:42;16.50;99.90
17236;DHT22;8734;59.272;17.780;2023-04-23T09:09:12;16.70;99.90
17236;DHT22;8734;59.272;17.780;2023-04-23T09:11:42;16.80;99.90
17236;DHT22;8734;59.272;17.780;2023-04-23T09:14:12;16.80;99.90
17236;DHT22;8734;59.272;17.780;2023-04-23T09:16:40;17.20;99.90
17236;DHT22;8734;59.272;17.780;2023-04-23T09:19:09;17.30;99.90
17236;DHT22;8734;59.272;17.780;2023-04-23T09:21:39;17.60;99.90
17236;DHT22;8734;59.272;17.780;2023-04-23T09:24:09;18.30;99.90
17236;DHT22;8734;59.272;17.780;2023-04-23T09:26:43;18.40;99.90
17236;DHT22;8734;59.272;17.780;2023-04-23T09:29:13;18.50;99.90
17236;DHT22;8734;59.272;17.780;2023-04-23T09:31:45;18.90;99.90
17236;DHT22;8734;59.272;17.780;2023-04-23T09:34:16;20.00;99.90
17236;DHT22;8734;59.272;17.780;2023-04-23T09:36:48;19.30;99.90
17236;DHT22;8734;59.272;17.780;2023-04-23T09:39:18;18.90;99.90
17236;DHT22;8734;59.272;17.780;2023-04-23T09:41:47;18.40;99.90
17236;DHT22;8734;59.272;17.780;2023-04-23T09:44:19;18.40;99.90
17236;DHT22;8734;59.272;17.780;2023-04-23T09:46:49;18.40;99.90
17236;DHT22;8734;59.272;17.780;2023-04-23T09:49:17;18.40;99.90
17236;DHT22;8734;59.272;17.780;2023-04-23T09:51:47;18.00;99.90
17236;DHT22;8734;59.272;17.780;2023-04-23T09:54:19;18.00;99.90
17236;DHT22;8734;59.272;17.780;2023-04-23T09:56:50;17.60;99.90
17236;DHT22;8734;59.272;17.780;2023-04-23T09:59:21;18.30;99.90
17236;DHT22;8734;59.272;17.780;2023-04-23T10:02:09;19.10;99.90
17236;DHT22;8734;59.272;17.780;2023-04-23T10:04:38;19.20;99.90
17236;DHT22;8734;59.272;17.780;2023-04-23T10:07:09;19.10;99.90
17236;DHT22;8734;59.272;17.780;2023-04-23T10:09:42;18.50;99.90
17236;DHT22;8734;59.272;17.780;2023-04-23T10:12:12;18.80;99.90
17236;DHT22;8734;59.272;17.780;2023-04-23T10:14:45;18.80;99.90
17236;DHT22;8734;59.272;17.780;2023-04-23T10:17:15;18.70;99.90
17236;DHT22;8734;59.272;17.780;2023-04-23T10:19:43;18.10;99.90
17236;DHT22;8734;59.272;17.780;2023-04-23T10:22:15;17.30;99.90
17236;DHT22;8734;59.272;17.780;2023-04-23T10:24:49;16.80;99.90
17236;DHT22;8734;59.272;17.780;2023-04-23T10:27:21;17.20;99.90
17236;DHT22;8734;59.272;17.780;2023-04-23T10:30:11;17.80;99.90
17236;DHT22;8734;59.272;17.780;2023-04-23T10:32:40;18.30;99.90
17236;DHT22;8734;59.272;17.780;2023-04-23T10:35:09;19.40;99.90
17236;DHT22;8734;59.272;17.780;2023-04-23T10:37:39;20.20;99.90
17236;DHT22;8734;59.272;17.780;2023-04-23T10:40:09;20.50;99.90
17236;DHT22;8734;59.272;17.780;2023-04-23T10:42:41;21.30;99.90
17236;DHT22;8734;59.272;17.780;2023-04-23T10:45:13;21.40;99.90
17236;DHT22;8734;59.272;17.780;2023-04-23T10:47:52;20.60;99.90
17236;DHT22;8734;59.272;17.780;2023-04-23T10:50:23;19.60;99.90
17236;DHT22;8734;59.272;17.780;2023-04-23T10:52:54;19.60;99.90
17236;DHT22;8734;59.272;17.780;2023-04-23T10:55:25;19.80;99.90
17236;DHT22;8734;59.272;17.780;2023-04-23T10:57:56;19.90;99.90
17236;DHT22;8734;59.272;17.780;2023-04-23T11:00:29;20.80;99.90
17236;DHT22;8734;59.272;17.780;2023-04-23T11:02:57;21.40;99.90
17236;DHT22;8734;59.272;17.780;2023-04-23T11:05:26;21.20;99.90
17236;DHT22;8734;59.272;17.780;2023-04-23T11:08:06;21.10;99.90
17236;DHT22;8734;59.272;17.780;2023-04-23T11:10:50;21.50;99.90
17236;DHT22;8734;59.272;17.780;2023-04-23T11:13:22;20.70;99.90
17236;DHT22;8734;59.272;17.780;2023-04-23T11:16:14;21.30;99.90
17236;DHT22;8734;59.272;17.780;2023-04-23T11:19:00;21.00;99.90
17236;DHT22;8734;59.272;17.780;2023-04-23T11:21:57;21.60;99.90
17236;DHT22;8734;59.272;17.780;2023-04-23T11:24:30;22.10;99.70
17236;DHT22;8734;59.272;17.780;2023-04-23T11:26:59;21.90;99.40
17236;DHT22;8734;59.272;17.780;2023-04-23T11:29:28;22.10;99.30
17236;DHT22;8734;59.272;17.780;2023-04-23T11:31:57;22.20;99.30
17236;DHT22;8734;59.272;17.780;2023-04-23T11:34:29;22.30;98.30
17236;DHT22;8734;59.272;17.780;2023-04-23T11:36:58;22.30;98.20
17236;DHT22;8734;59.272;17.780;2023-04-23T11:39:28;23.70;96.30
17236;DHT22;8734;59.272;17.780;2023-04-23T11:41:57;24.50;95.00
17236;DHT22;8734;59.272;17.780;2023-04-23T11:44:28;24.50;94.10
17236;DHT22;8734;59.272;17.780;2023-04-23T11:46:59;25.00;93.00
17236;DHT22;8734;59.272;17.780;2023-04-23T11:49:28;25.60;91.50
17236;DHT22;8734;59.272;17.780;2023-04-23T11:51:58;25.80;90.00
17236;DHT22;8734;59.272;17.780;2023-04-23T11:54:28;26.40;90.00
17236;DHT22;8734;59.272;17.780;2023-04-23T11:56:57;25.70;88.60
17236;DHT22;8734;59.272;17.780;2023-04-23T11:59:26;24.30;86.50
17236;DHT22;8734;59.272;17.780;2023-04-23T12:01:56;22.10;90.80
17236;DHT22;8734;59.272;17.780;2023-04-23T12:04:25;21.80;93.00
17236;DHT22;8734;59.272;17.780;2023-04-23T12:06:55;21.90;93.20
17236;DHT22;8734;59.272;17.780;2023-04-23T12:09:24;22.60;92.10
17236;DHT22;8734;59.272;17.780;2023-04-23T12:11:56;23.40;91.70
17236;DHT22;8734;59.272;17.780;2023-04-23T12:14:26;24.80;89.80
17236;DHT22;8734;59.272;17.780;2023-04-23T12:16:57;26.00;87.50
17236;DHT22;8734;59.272;17.780;2023-04-23T12:19:26;26.10;84.70
17236;DHT22;8734;59.272;17.780;2023-04-23T12:21:57;25.10;83.70
17236;DHT22;8734;59.272;17.780;2023-04-23T12:24:27;23.90;88.10
17236;DHT22;8734;59.272;17.780;2023-04-23T12:26:58;22.60;88.70
17236;DHT22;8734;59.272;17.780;2023-04-23T12:29:29;21.40;90.90
17236;DHT22;8734;59.272;17.780;2023-04-23T12:31:58;20.80;91.00
17236;DHT22;8734;59.272;17.780;2023-04-23T12:34:27;20.00;92.40
17236;DHT22;8734;59.272;17.780;2023-04-23T12:36:55;19.20;93.90
17236;DHT22;8734;59.272;17.780;2023-04-23T12:39:26;18.90;94.70
17236;DHT22;8734;59.272;17.780;2023-04-23T12:41:57;18.60;96.50
17236;DHT22;8734;59.272;17.780;2023-04-23T12:44:29;18.50;96.40
17236;DHT22;8734;59.272;17.780;2023-04-23T12:46:58;18.40;98.00
17236;DHT22;8734;59.272;17.780;2023-04-23T12:49:30;18.90;98.40
17236;DHT22;8734;59.272;17.780;2023-04-23T12:52:00;19.30;97.60
17236;DHT22;8734;59.272;17.780;2023-04-23T12:54:30;19.20;97.20
17236;DHT22;8734;59.272;17.780;2023-04-23T12:57:00;18.80;98.80
17236;DHT22;8734;59.272;17.780;2023-04-23T12:59:29;18.60;98.70
17236;DHT22;8734;59.272;17.780;2023-04-23T13:01:57;18.50;99.60
17236;DHT22;8734;59.272;17.780;2023-04-23T13:04:29;18.50;99.80
17236;DHT22;8734;59.272;17.780;2023-04-23T13:06:57;18.30;99.30
17236;DHT22;8734;59.272;17.780;2023-04-23T13:09:26;18.20;99.90
17236;DHT22;8734;59.272;17.780;2023-04-23T13:11:55;18.40;99.80
17236;DHT22;8734;59.272;17.780;2023-04-23T13:14:24;18.70;99.70
17236;DHT22;8734;59.272;17.780;2023-04-23T13:16:53;19.00;98.90
17236;DHT22;8734;59.272;17.780;2023-04-23T13:19:23;19.00;98.40
17236;DHT22;8734;59.272;17.780;2023-04-23T13:21:52;18.70;98.70
17236;DHT22;8734;59.272;17.780;2023-04-23T13:24:20;18.30;98.80
17236;DHT22;8734;59.272;17.780;2023-04-23T13:26:48;17.90;99.90
17236;DHT22;8734;59.272;17.780;2023-04-23T13:29:17;17.50;99.70
17236;DHT22;8734;59.272;17.780;2023-04-23T13:31:46;17.30;99.90
17236;DHT22;8734;59.272;17.780;2023-04-23T13:34:15;17.30;99.90
17236;DHT22;8734;59.272;17.780;2023-04-23T13:36:43;17.30;99.90
17236;DHT22;8734;59.272;17.780;2023-04-23T13:39:11;17.20;99.90
17236;DHT22;8734;59.272;17.780;2023-04-23T13:41:40;17.10;99.90
17236;DHT22;8734;59.272;17.780;2023-04-23T13:44:08;17.00;99.90
17236;DHT22;8734;59.272;17.780;2023-04-23T13:46:38;17.00;99.90
17236;DHT22;8734;59.272;17.780;2023-04-23T13:49:08;16.90;99.90
17236;DHT22;8734;59.272;17.780;2023-04-23T13:51:36;16.90;99.90
17236;DHT22;8734;59.272;17.780;2023-04-23T13:54:05;16.80;99.90
17236;DHT22;8734;59.272;17.780;2023-04-23T13:56:33;16.80;99.90
17236;DHT22;8734;59.272;17.780;2023-04-23T13:59:03;16.80;99.90
17236;DHT22;8734;59.272;17.780;2023-04-23T14:01:45;16.70;99.90
17236;DHT22;8734;59.272;17.780;2023-04-23T14:04:19;16.80;99.90
17236;DHT22;8734;59.272;17.780;2023-04-23T14:06:48;16.90;99.90
17236;DHT22;8734;59.272;17.780;2023-04-23T14:09:17;17.00;99.90
17236;DHT22;8734;59.272;17.780;2023-04-23T14:11:48;17.00;99.90
17236;DHT22;8734;59.272;17.780;2023-04-23T14:14:16;17.10;99.90
17236;DHT22;8734;59.272;17.780;2023-04-23T14:16:44;17.20;99.90
17236;DHT22;8734;59.272;17.780;2023-04-23T14:19:13;17.30;99.90
17236;DHT22;8734;59.272;17.780;2023-04-23T14:21:43;17.40;99.90
17236;DHT22;8734;59.272;17.780;2023-04-23T14:24:17;17.20;99.90
17236;DHT22;8734;59.272;17.780;2023-04-23T14:26:45;17.00;99.90
17236;DHT22;8734;59.272;17.780;2023-04-23T14:29:23;16.70;99.90
17236;DHT22;8734;59.272;17.780;2023-04-23T14:31:52;16.50;99.90
17236;DHT22;8734;59.272;17.780;2023-04-23T14:34:20;16.40;99.90
17236;DHT22;8734;59.272;17.780;2023-04-23T14:36:50;16.40;99.90
17236;DHT22;8734;59.272;17.780;2023-04-23T14:39:20;16.40;99.90
17236;DHT22;8734;59.272;17.780;2023-04-23T14:41:49;16.40;99.90
17236;DHT22;8734;59.272;17.780;2023-04-23T14:44:17;16.30;99.90
17236;DHT22;8734;59.272;17.780;2023-04-23T14:46:45;16.20;99.90
17236;DHT22;8734;59.272;17.780;2023-04-23T14:49:15;16.20;99.90
17236;DHT22;8734;59.272;17.780;2023-04-23T14:51:44;16.30;99.90
17236;DHT22;8734;59.272;17.780;2023-04-23T14:54:14;16.40;99.90
17236;DHT22;8734;59.272;17.780;2023-04-23T14:56:42;16.30;99.90
17236;DHT22;8734;59.272;17.780;2023-04-23T14:59:11;16.40;99.90
17236;DHT22;8734;59.272;17.780;2023-04-23T15:01:39;16.30;99.90
17236;DHT22;8734;59.272;17.780;2023-04-23T15:04:09;16.30;99.90
17236;DHT22;8734;59.272;17.780;2023-04-23T15:06:37;16.10;99.90
17236;DHT22;8734;59.272;17.780;2023-04-23T15:09:06;15.90;99.90
17236;DHT22;8734;59.272;17.780;2023-04-23T15:11:36;16.00;99.90
17236;DHT22;8734;59.272;17.780;2023-04-23T15:14:07;16.10;99.90
17236;DHT22;8734;59.272;17.780;2023-04-23T15:16:45;16.10;99.90
17236;DHT22;8734;59.272;17.780;2023-04-23T15:19:16;16.00;99.90
17236;DHT22;8734;59.272;17.780;2023-04-23T15:21:45;15.90;99.90
17236;DHT22;8734;59.272;17.780;2023-04-23T15:24:14;15.70;99.90
17236;DHT22;8734;59.272;17.780;2023-04-23T15:26:44;15.60;99.90
17236;DHT22;8734;59.272;17.780;2023-04-23T15:29:12;15.70;99.90
17236;DHT22;8734;59.272;17.780;2023-04-23T15:31:40;15.70;99.90
17236;DHT22;8734;59.272;17.780;2023-04-23T15:34:09;15.80;99.90
17236;DHT22;8734;59.272;17.780;2023-04-23T15:36:38;15.80;99.90
17236;DHT22;8734;59.272;17.780;2023-04-23T15:39:07;15.70;99.90
17236;DHT22;8734;59.272;17.780;2023-04-23T15:41:35;15.50;99.90
17236;DHT22;8734;59.272;17.780;2023-04-23T15:44:09;15.40;99.90
17236;DHT22;8734;59.272;17.780;2023-04-23T15:46:38;15.30;99.90
17236;DHT22;8734;59.272;17.780;2023-04-23T15:49:07;15.30;99.90
17236;DHT22;8734;59.272;17.780;2023-04-23T15:51:35;15.40;99.90
17236;DHT22;8734;59.272;17.780;2023-04-23T15:54:04;15.30;99.90